Darwaz Airport


Codes: OADZ/DAZ
Name: Darwaz Airport
City: Darwaz
Country: Afghanistan
Elevation: 5250 ft.

Photos at Darwaz Airport


   Photos courtesy of SpottingLog. You can add your own sightings and photos by signing up for a free trial today.



No photos found.

Weather at Darwaz Airport


Time (UTC)DescriptionTempratureWindCloud coverageVisibilityPressureHumidity
16-Jun-2024 00:00Clear Sky15°C4 mph, NE1%10000m1015hPa59%
16-Jun-2024 03:00Clear Sky17°C0 mph, SE1%10000m1015hPa55%
16-Jun-2024 06:00Clear Sky22°C2 mph, SW1%10000m1013hPa41%
16-Jun-2024 09:00Scattered Clouds27°C2 mph, W40%10000m1010hPa24%
16-Jun-2024 12:00Scattered Clouds27°C0 mph, SW49%10000m1010hPa29%
16-Jun-2024 15:00Light Rain22°C7 mph, N33%10000m1011hPa48%
16-Jun-2024 18:00Light Rain19°C4 mph, N32%10000m1015hPa59%
16-Jun-2024 21:00Light Rain18°C0 mph, SE99%10000m1014hPa65%
17-Jun-2024 00:00Light Rain17°C2 mph, NE99%10000m1015hPa67%
17-Jun-2024 03:00Overcast Clouds21°C0 mph, SW100%10000m1015hPa53%
17-Jun-2024 06:00Light Rain24°C2 mph, SW100%10000m1014hPa40%
17-Jun-2024 09:00Light Rain26°C9 mph, SE100%10000m1013hPa32%
17-Jun-2024 12:00Light Rain23°C9 mph, N78%10000m1013hPa44%
17-Jun-2024 15:00Light Rain18°C2 mph, NW29%10000m1016hPa66%
17-Jun-2024 18:00Light Rain17°C0 mph, S15%10000m1017hPa67%
17-Jun-2024 21:00Light Rain16°C2 mph, SE11%10000m1017hPa71%
18-Jun-2024 00:00Light Rain15°C0 mph, W22%10000m1017hPa72%
18-Jun-2024 03:00Light Rain20°C2 mph, W12%10000m1016hPa52%
18-Jun-2024 06:00Light Rain24°C4 mph, W6%10000m1013hPa38%
18-Jun-2024 09:00Light Rain25°C7 mph, W33%10000m1011hPa34%
18-Jun-2024 12:00Scattered Clouds25°C7 mph, W35%10000m1010hPa31%
18-Jun-2024 15:00Scattered Clouds21°C7 mph, NW45%10000m1012hPa47%
18-Jun-2024 18:00Light Rain18°C0 mph, N62%10000m1014hPa60%
18-Jun-2024 21:00Light Rain17°C0 mph, NE38%10000m1014hPa63%
19-Jun-2024 00:00Light Rain15°C2 mph, E23%10000m1014hPa67%
19-Jun-2024 03:00Light Rain20°C2 mph, SW0%10000m1013hPa50%
19-Jun-2024 06:00Clear Sky24°C2 mph, S5%10000m1010hPa28%
19-Jun-2024 09:00Scattered Clouds25°C2 mph, S38%10000m1008hPa28%
19-Jun-2024 12:00Moderate Rain17°C9 mph, NW49%10000m1014hPa74%
19-Jun-2024 15:00Light Rain15°C0 mph, W88%10000m1015hPa78%
19-Jun-2024 18:00Scattered Clouds15°C2 mph, E46%10000m1015hPa78%
19-Jun-2024 21:00Clear Sky14°C0 mph, E3%10000m1013hPa75%
20-Jun-2024 00:00Clear Sky14°C2 mph, SE0%10000m1013hPa71%
20-Jun-2024 03:00Clear Sky19°C2 mph, SW0%10000m1012hPa50%
20-Jun-2024 06:00Clear Sky24°C2 mph, SW0%10000m1009hPa31%
20-Jun-2024 09:00Clear Sky26°C2 mph, SW7%10000m1007hPa27%
20-Jun-2024 12:00Light Rain25°C2 mph, NE30%10000m1006hPa35%
20-Jun-2024 15:00Scattered Clouds20°C4 mph, NW25%10000m1008hPa54%
20-Jun-2024 18:00Light Rain18°C0 mph, NE19%10000m1011hPa61%
20-Jun-2024 21:00Light Rain16°C0 mph, E6%10000m1011hPa66%